sensor_id;sensor_type;location;lat;lon;timestamp;temperature;humidity
74081;SHT31;62438;52.228;6.864;2023-08-31T00:00:55;11.99;95.05
74081;SHT31;62438;52.228;6.864;2023-08-31T00:02:55;11.97;95.40
74081;SHT31;62438;52.228;6.864;2023-08-31T00:04:56;11.95;95.28
74081;SHT31;62438;52.228;6.864;2023-08-31T00:06:56;11.99;95.26
74081;SHT31;62438;52.228;6.864;2023-08-31T00:08:56;12.00;95.09
74081;SHT31;62438;52.228;6.864;2023-08-31T00:10:58;11.99;94.83
74081;SHT31;62438;52.228;6.864;2023-08-31T00:13:00;11.99;94.51
74081;SHT31;62438;52.228;6.864;2023-08-31T00:15:01;11.95;94.87
74081;SHT31;62438;52.228;6.864;2023-08-31T00:17:01;11.97;94.43
74081;SHT31;62438;52.228;6.864;2023-08-31T00:19:03;11.97;94.40
74081;SHT31;62438;52.228;6.864;2023-08-31T00:21:04;12.05;93.31
74081;SHT31;62438;52.228;6.864;2023-08-31T00:23:04;12.06;93.40
74081;SHT31;62438;52.228;6.864;2023-08-31T00:25:05;12.03;93.92
74081;SHT31;62438;52.228;6.864;2023-08-31T00:27:08;11.97;93.94
74081;SHT31;62438;52.228;6.864;2023-08-31T00:29:14;11.90;94.33
74081;SHT31;62438;52.228;6.864;2023-08-31T00:31:16;11.88;94.54
74081;SHT31;62438;52.228;6.864;2023-08-31T00:33:17;11.83;94.70
74081;SHT31;62438;52.228;6.864;2023-08-31T00:35:17;11.83;94.51
74081;SHT31;62438;52.228;6.864;2023-08-31T00:37:17;11.83;94.75
74081;SHT31;62438;52.228;6.864;2023-08-31T00:39:18;11.85;94.45
74081;SHT31;62438;52.228;6.864;2023-08-31T00:41:22;11.83;94.85
74081;SHT31;62438;52.228;6.864;2023-08-31T00:43:22;11.79;94.38
74081;SHT31;62438;52.228;6.864;2023-08-31T00:45:23;11.78;94.40
74081;SHT31;62438;52.228;6.864;2023-08-31T00:47:24;11.76;94.26
74081;SHT31;62438;52.228;6.864;2023-08-31T00:49:24;11.76;94.20
74081;SHT31;62438;52.228;6.864;2023-08-31T00:51:25;11.72;94.11
74081;SHT31;62438;52.228;6.864;2023-08-31T00:53:26;11.74;94.15
74081;SHT31;62438;52.228;6.864;2023-08-31T00:55:26;11.66;94.07
74081;SHT31;62438;52.228;6.864;2023-08-31T00:57:27;11.66;93.91
74081;SHT31;62438;52.228;6.864;2023-08-31T00:59:27;11.66;93.69
74081;SHT31;62438;52.228;6.864;2023-08-31T01:01:37;11.62;93.85
74081;SHT31;62438;52.228;6.864;2023-08-31T01:04:06;11.65;93.80
74081;SHT31;62438;52.228;6.864;2023-08-31T01:06:18;11.58;93.92
74081;SHT31;62438;52.228;6.864;2023-08-31T01:13:03;11.59;93.88
74081;SHT31;62438;52.228;6.864;2023-08-31T01:15:04;11.55;94.02
74081;SHT31;62438;52.228;6.864;2023-08-31T01:17:11;11.55;94.10
74081;SHT31;62438;52.228;6.864;2023-08-31T01:19:30;11.57;93.98
74081;SHT31;62438;52.228;6.864;2023-08-31T01:21:38;11.52;94.10
74081;SHT31;62438;52.228;6.864;2023-08-31T01:23:56;11.50;94.23
74081;SHT31;62438;52.228;6.864;2023-08-31T01:25:58;11.45;95.06
74081;SHT31;62438;52.228;6.864;2023-08-31T01:27:59;11.44;94.92
74081;SHT31;62438;52.228;6.864;2023-08-31T01:30:00;11.44;95.43
74081;SHT31;62438;52.228;6.864;2023-08-31T01:32:00;11.39;95.46
74081;SHT31;62438;52.228;6.864;2023-08-31T01:34:00;11.41;95.42
74081;SHT31;62438;52.228;6.864;2023-08-31T01:36:05;11.39;95.78
74081;SHT31;62438;52.228;6.864;2023-08-31T01:38:10;11.42;95.94
74081;SHT31;62438;52.228;6.864;2023-08-31T01:40:25;11.37;95.71
74081;SHT31;62438;52.228;6.864;2023-08-31T01:42:29;11.31;96.31
74081;SHT31;62438;52.228;6.864;2023-08-31T01:44:32;11.32;96.21
74081;SHT31;62438;52.228;6.864;2023-08-31T01:46:34;11.37;96.13
74081;SHT31;62438;52.228;6.864;2023-08-31T01:48:38;11.35;96.26
74081;SHT31;62438;52.228;6.864;2023-08-31T01:50:40;11.39;96.30
74081;SHT31;62438;52.228;6.864;2023-08-31T01:52:40;11.38;96.19
74081;SHT31;62438;52.228;6.864;2023-08-31T01:54:41;11.41;96.08
74081;SHT31;62438;52.228;6.864;2023-08-31T01:56:41;11.48;96.02
74081;SHT31;62438;52.228;6.864;2023-08-31T01:58:41;11.52;95.81
74081;SHT31;62438;52.228;6.864;2023-08-31T02:00:42;11.52;95.94
74081;SHT31;62438;52.228;6.864;2023-08-31T02:02:42;11.52;95.88
74081;SHT31;62438;52.228;6.864;2023-08-31T02:04:43;11.55;95.78
74081;SHT31;62438;52.228;6.864;2023-08-31T02:06:43;11.52;96.39
74081;SHT31;62438;52.228;6.864;2023-08-31T02:08:44;11.54;96.29
74081;SHT31;62438;52.228;6.864;2023-08-31T02:10:47;11.55;96.31
74081;SHT31;62438;52.228;6.864;2023-08-31T02:12:48;11.57;96.02
74081;SHT31;62438;52.228;6.864;2023-08-31T02:14:48;11.58;96.11
74081;SHT31;62438;52.228;6.864;2023-08-31T02:16:49;11.55;96.29
74081;SHT31;62438;52.228;6.864;2023-08-31T02:18:50;11.54;96.98
74081;SHT31;62438;52.228;6.864;2023-08-31T02:20:52;11.57;96.25
74081;SHT31;62438;52.228;6.864;2023-08-31T02:22:53;11.62;96.13
74081;SHT31;62438;52.228;6.864;2023-08-31T02:24:53;11.65;96.33
74081;SHT31;62438;52.228;6.864;2023-08-31T02:26:54;11.65;96.14
74081;SHT31;62438;52.228;6.864;2023-08-31T02:28:54;11.68;96.19
74081;SHT31;62438;52.228;6.864;2023-08-31T02:31:02;11.75;96.18
74081;SHT31;62438;52.228;6.864;2023-08-31T02:33:03;11.76;95.91
74081;SHT31;62438;52.228;6.864;2023-08-31T02:35:03;11.75;95.87
74081;SHT31;62438;52.228;6.864;2023-08-31T02:37:04;11.75;96.23
74081;SHT31;62438;52.228;6.864;2023-08-31T02:39:04;11.76;96.26
74081;SHT31;62438;52.228;6.864;2023-08-31T02:41:05;11.76;96.22
74081;SHT31;62438;52.228;6.864;2023-08-31T02:43:05;11.75;96.49
74081;SHT31;62438;52.228;6.864;2023-08-31T02:45:06;11.75;96.50
74081;SHT31;62438;52.228;6.864;2023-08-31T02:47:06;11.74;96.74
74081;SHT31;62438;52.228;6.864;2023-08-31T02:49:06;11.72;96.90
74081;SHT31;62438;52.228;6.864;2023-08-31T02:51:07;11.72;97.23
74081;SHT31;62438;52.228;6.864;2023-08-31T02:53:07;11.69;97.21
74081;SHT31;62438;52.228;6.864;2023-08-31T02:55:08;11.69;97.06
74081;SHT31;62438;52.228;6.864;2023-08-31T02:57:08;11.71;97.42
74081;SHT31;62438;52.228;6.864;2023-08-31T02:59:08;11.69;97.02
74081;SHT31;62438;52.228;6.864;2023-08-31T03:01:10;11.69;97.29
74081;SHT31;62438;52.228;6.864;2023-08-31T03:03:17;11.65;97.21
74081;SHT31;62438;52.228;6.864;2023-08-31T03:05:18;11.62;97.51
74081;SHT31;62438;52.228;6.864;2023-08-31T03:07:19;11.59;97.39
74081;SHT31;62438;52.228;6.864;2023-08-31T03:09:19;11.61;97.43
74081;SHT31;62438;52.228;6.864;2023-08-31T03:11:20;11.61;97.60
74081;SHT31;62438;52.228;6.864;2023-08-31T03:13:20;11.62;97.64
74081;SHT31;62438;52.228;6.864;2023-08-31T03:15:21;11.57;97.53
74081;SHT31;62438;52.228;6.864;2023-08-31T03:17:21;11.57;97.68
74081;SHT31;62438;52.228;6.864;2023-08-31T03:19:22;11.55;97.80
74081;SHT31;62438;52.228;6.864;2023-08-31T03:21:22;11.55;97.56
74081;SHT31;62438;52.228;6.864;2023-08-31T03:23:22;11.54;97.59
74081;SHT31;62438;52.228;6.864;2023-08-31T03:25:23;11.54;97.64
74081;SHT31;62438;52.228;6.864;2023-08-31T03:27:24;11.58;97.68
74081;SHT31;62438;52.228;6.864;2023-08-31T03:29:25;11.58;97.61
74081;SHT31;62438;52.228;6.864;2023-08-31T03:31:25;11.55;97.58
74081;SHT31;62438;52.228;6.864;2023-08-31T03:33:25;11.57;97.53
74081;SHT31;62438;52.228;6.864;2023-08-31T03:35:27;11.48;97.77
74081;SHT31;62438;52.228;6.864;2023-08-31T03:37:29;11.47;98.24
74081;SHT31;62438;52.228;6.864;2023-08-31T03:39:29;11.42;98.19
74081;SHT31;62438;52.228;6.864;2023-08-31T03:41:29;11.39;98.32
74081;SHT31;62438;52.228;6.864;2023-08-31T03:43:30;11.42;98.56
74081;SHT31;62438;52.228;6.864;2023-08-31T03:45:31;11.39;98.56
74081;SHT31;62438;52.228;6.864;2023-08-31T03:47:31;11.39;98.61
74081;SHT31;62438;52.228;6.864;2023-08-31T03:49:32;11.41;98.83
74081;SHT31;62438;52.228;6.864;2023-08-31T03:51:33;11.45;98.70
74081;SHT31;62438;52.228;6.864;2023-08-31T03:53:34;11.42;98.70
74081;SHT31;62438;52.228;6.864;2023-08-31T03:55:35;11.37;98.79
74081;SHT31;62438;52.228;6.864;2023-08-31T03:57:36;11.35;99.10
74081;SHT31;62438;52.228;6.864;2023-08-31T03:59:37;11.34;98.95
74081;SHT31;62438;52.228;6.864;2023-08-31T04:01:37;11.34;99.03
74081;SHT31;62438;52.228;6.864;2023-08-31T04:03:37;11.35;99.05
74081;SHT31;62438;52.228;6.864;2023-08-31T04:05:38;11.38;99.03
74081;SHT31;62438;52.228;6.864;2023-08-31T04:07:38;11.42;98.95
74081;SHT31;62438;52.228;6.864;2023-08-31T04:09:38;11.42;98.99
74081;SHT31;62438;52.228;6.864;2023-08-31T04:11:39;11.44;98.97
74081;SHT31;62438;52.228;6.864;2023-08-31T04:13:39;11.38;99.10
74081;SHT31;62438;52.228;6.864;2023-08-31T04:15:39;11.38;99.02
74081;SHT31;62438;52.228;6.864;2023-08-31T04:17:40;11.35;99.14
74081;SHT31;62438;52.228;6.864;2023-08-31T04:19:40;11.37;99.20
74081;SHT31;62438;52.228;6.864;2023-08-31T04:21:41;11.35;98.98
74081;SHT31;62438;52.228;6.864;2023-08-31T04:23:41;11.39;98.83
74081;SHT31;62438;52.228;6.864;2023-08-31T04:25:41;11.35;98.87
74081;SHT31;62438;52.228;6.864;2023-08-31T04:27:42;11.38;98.99
74081;SHT31;62438;52.228;6.864;2023-08-31T04:29:43;11.37;99.09
74081;SHT31;62438;52.228;6.864;2023-08-31T04:31:43;11.38;98.98
74081;SHT31;62438;52.228;6.864;2023-08-31T04:33:44;11.37;98.78
74081;SHT31;62438;52.228;6.864;2023-08-31T04:35:45;11.38;98.63
74081;SHT31;62438;52.228;6.864;2023-08-31T04:37:45;11.39;98.56
74081;SHT31;62438;52.228;6.864;2023-08-31T04:39:47;11.39;98.32
74081;SHT31;62438;52.228;6.864;2023-08-31T04:41:47;11.38;98.46
74081;SHT31;62438;52.228;6.864;2023-08-31T04:43:47;11.37;98.56
74081;SHT31;62438;52.228;6.864;2023-08-31T04:45:48;11.39;98.47
74081;SHT31;62438;52.228;6.864;2023-08-31T04:47:48;11.44;98.35
74081;SHT31;62438;52.228;6.864;2023-08-31T04:49:50;11.50;98.01
74081;SHT31;62438;52.228;6.864;2023-08-31T04:51:51;11.50;97.98
74081;SHT31;62438;52.228;6.864;2023-08-31T04:53:51;11.48;97.88
74081;SHT31;62438;52.228;6.864;2023-08-31T04:55:53;11.45;98.03
74081;SHT31;62438;52.228;6.864;2023-08-31T04:57:53;11.47;97.76
74081;SHT31;62438;52.228;6.864;2023-08-31T04:59:54;11.41;98.23
74081;SHT31;62438;52.228;6.864;2023-08-31T05:01:54;11.47;97.70
74081;SHT31;62438;52.228;6.864;2023-08-31T05:03:54;11.45;97.63
74081;SHT31;62438;52.228;6.864;2023-08-31T05:05:55;11.48;97.61
74081;SHT31;62438;52.228;6.864;2023-08-31T05:07:55;11.48;97.29
74081;SHT31;62438;52.228;6.864;2023-08-31T05:09:55;11.50;97.38
74081;SHT31;62438;52.228;6.864;2023-08-31T05:11:56;11.51;97.29
74081;SHT31;62438;52.228;6.864;2023-08-31T05:13:56;11.50;97.41
74081;SHT31;62438;52.228;6.864;2023-08-31T05:15:56;11.48;97.57
74081;SHT31;62438;52.228;6.864;2023-08-31T05:17:57;11.55;97.18
74081;SHT31;62438;52.228;6.864;2023-08-31T05:19:57;11.55;97.19
74081;SHT31;62438;52.228;6.864;2023-08-31T05:21:58;11.61;96.91
74081;SHT31;62438;52.228;6.864;2023-08-31T05:23:58;11.65;96.72
74081;SHT31;62438;52.228;6.864;2023-08-31T05:25:58;11.68;96.58
74081;SHT31;62438;52.228;6.864;2023-08-31T05:27:59;11.72;96.60
74081;SHT31;62438;52.228;6.864;2023-08-31T05:29:59;11.83;96.27
74081;SHT31;62438;52.228;6.864;2023-08-31T05:31:59;11.95;95.95
74081;SHT31;62438;52.228;6.864;2023-08-31T05:34:00;12.03;95.89
74081;SHT31;62438;52.228;6.864;2023-08-31T05:36:01;12.09;95.78
74081;SHT31;62438;52.228;6.864;2023-08-31T05:38:03;12.16;95.63
74081;SHT31;62438;52.228;6.864;2023-08-31T05:40:04;12.23;95.37
74081;SHT31;62438;52.228;6.864;2023-08-31T05:42:06;12.30;95.25
74081;SHT31;62438;52.228;6.864;2023-08-31T05:44:08;12.27;95.64
74081;SHT31;62438;52.228;6.864;2023-08-31T05:46:08;12.33;95.39
74081;SHT31;62438;52.228;6.864;2023-08-31T05:48:09;12.34;95.22
74081;SHT31;62438;52.228;6.864;2023-08-31T05:50:09;12.33;95.52
74081;SHT31;62438;52.228;6.864;2023-08-31T05:52:10;12.34;95.35
74081;SHT31;62438;52.228;6.864;2023-08-31T05:54:10;12.32;95.37
74081;SHT31;62438;52.228;6.864;2023-08-31T05:56:13;12.32;95.44
74081;SHT31;62438;52.228;6.864;2023-08-31T05:58:13;12.32;95.84
74081;SHT31;62438;52.228;6.864;2023-08-31T06:00:15;12.38;95.53
74081;SHT31;62438;52.228;6.864;2023-08-31T06:02:16;12.38;95.68
74081;SHT31;62438;52.228;6.864;2023-08-31T06:04:16;12.37;95.53
74081;SHT31;62438;52.228;6.864;2023-08-31T06:06:17;12.40;95.52
74081;SHT31;62438;52.228;6.864;2023-08-31T06:08:17;12.38;95.79
74081;SHT31;62438;52.228;6.864;2023-08-31T06:10:17;12.33;96.14
74081;SHT31;62438;52.228;6.864;2023-08-31T06:12:18;12.36;96.01
74081;SHT31;62438;52.228;6.864;2023-08-31T06:14:18;12.38;96.11
74081;SHT31;62438;52.228;6.864;2023-08-31T06:16:19;12.43;96.25
74081;SHT31;62438;52.228;6.864;2023-08-31T06:18:20;12.54;95.96
74081;SHT31;62438;52.228;6.864;2023-08-31T06:20:20;12.67;95.57
74081;SHT31;62438;52.228;6.864;2023-08-31T06:22:20;12.78;94.74
74081;SHT31;62438;52.228;6.864;2023-08-31T06:24:23;12.82;95.05
74081;SHT31;62438;52.228;6.864;2023-08-31T06:26:23;12.85;95.24
74081;SHT31;62438;52.228;6.864;2023-08-31T06:28:23;12.89;94.99
74081;SHT31;62438;52.228;6.864;2023-08-31T06:30:24;13.05;94.32
74081;SHT31;62438;52.228;6.864;2023-08-31T06:32:24;13.11;94.62
74081;SHT31;62438;52.228;6.864;2023-08-31T06:34:25;13.16;94.08
74081;SHT31;62438;52.228;6.864;2023-08-31T06:36:25;13.38;93.63
74081;SHT31;62438;52.228;6.864;2023-08-31T06:38:25;13.47;93.59
74081;SHT31;62438;52.228;6.864;2023-08-31T06:40:26;13.47;93.42
74081;SHT31;62438;52.228;6.864;2023-08-31T06:42:26;13.57;93.23
74081;SHT31;62438;52.228;6.864;2023-08-31T06:44:27;13.57;93.29
74081;SHT31;62438;52.228;6.864;2023-08-31T06:46:27;13.57;92.85
74081;SHT31;62438;52.228;6.864;2023-08-31T06:48:28;13.50;93.30
74081;SHT31;62438;52.228;6.864;2023-08-31T06:50:29;13.47;92.21
74081;SHT31;62438;52.228;6.864;2023-08-31T06:52:29;13.43;92.37
74081;SHT31;62438;52.228;6.864;2023-08-31T06:54:30;13.43;92.67
74081;SHT31;62438;52.228;6.864;2023-08-31T06:56:30;13.44;92.38
74081;SHT31;62438;52.228;6.864;2023-08-31T06:58:30;13.49;92.95
74081;SHT31;62438;52.228;6.864;2023-08-31T07:00:31;13.50;92.45
74081;SHT31;62438;52.228;6.864;2023-08-31T07:02:32;13.53;92.33
74081;SHT31;62438;52.228;6.864;2023-08-31T07:04:34;13.54;92.83
74081;SHT31;62438;52.228;6.864;2023-08-31T07:06:35;13.60;92.79
74081;SHT31;62438;52.228;6.864;2023-08-31T07:08:36;13.56;92.37
74081;SHT31;62438;52.228;6.864;2023-08-31T07:10:37;13.57;92.45
74081;SHT31;62438;52.228;6.864;2023-08-31T07:12:37;13.77;92.20
74081;SHT31;62438;52.228;6.864;2023-08-31T07:14:38;13.81;91.49
74081;SHT31;62438;52.228;6.864;2023-08-31T07:16:38;13.94;91.56
74081;SHT31;62438;52.228;6.864;2023-08-31T07:18:39;14.24;91.33
74081;SHT31;62438;52.228;6.864;2023-08-31T07:20:39;14.59;90.26
74081;SHT31;62438;52.228;6.864;2023-08-31T07:22:39;14.49;89.45
74081;SHT31;62438;52.228;6.864;2023-08-31T07:24:43;14.40;89.68
74081;SHT31;62438;52.228;6.864;2023-08-31T07:26:44;14.32;90.66
74081;SHT31;62438;52.228;6.864;2023-08-31T07:28:44;14.28;90.46
74081;SHT31;62438;52.228;6.864;2023-08-31T07:30:45;14.21;90.83
74081;SHT31;62438;52.228;6.864;2023-08-31T07:32:45;14.14;91.28
74081;SHT31;62438;52.228;6.864;2023-08-31T07:34:46;14.14;90.87
74081;SHT31;62438;52.228;6.864;2023-08-31T07:36:46;14.07;91.23
74081;SHT31;62438;52.228;6.864;2023-08-31T07:38:47;14.18;90.84
74081;SHT31;62438;52.228;6.864;2023-08-31T07:40:47;14.46;90.08
74081;SHT31;62438;52.228;6.864;2023-08-31T07:42:47;14.76;89.62
74081;SHT31;62438;52.228;6.864;2023-08-31T07:44:48;14.94;89.19
74081;SHT31;62438;52.228;6.864;2023-08-31T07:46:48;14.73;88.74
74081;SHT31;62438;52.228;6.864;2023-08-31T07:48:49;14.52;89.13
74081;SHT31;62438;52.228;6.864;2023-08-31T07:50:50;14.39;89.54
74081;SHT31;62438;52.228;6.864;2023-08-31T07:52:51;14.33;89.78
74081;SHT31;62438;52.228;6.864;2023-08-31T07:54:52;14.46;90.01
74081;SHT31;62438;52.228;6.864;2023-08-31T07:56:52;14.56;90.20
74081;SHT31;62438;52.228;6.864;2023-08-31T07:58:52;14.63;90.14
74081;SHT31;62438;52.228;6.864;2023-08-31T08:00:54;14.62;90.24
74081;SHT31;62438;52.228;6.864;2023-08-31T08:02:55;14.50;89.76
74081;SHT31;62438;52.228;6.864;2023-08-31T08:04:55;14.53;90.18
74081;SHT31;62438;52.228;6.864;2023-08-31T08:06:56;14.60;90.31
74081;SHT31;62438;52.228;6.864;2023-08-31T08:08:56;14.66;90.68
74081;SHT31;62438;52.228;6.864;2023-08-31T08:10:56;14.76;89.90
74081;SHT31;62438;52.228;6.864;2023-08-31T08:12:57;14.84;90.26
74081;SHT31;62438;52.228;6.864;2023-08-31T08:14:57;14.97;89.15
74081;SHT31;62438;52.228;6.864;2023-08-31T08:16:58;14.90;88.66
74081;SHT31;62438;52.228;6.864;2023-08-31T08:18:58;14.84;89.44
74081;SHT31;62438;52.228;6.864;2023-08-31T08:20:58;14.90;89.03
74081;SHT31;62438;52.228;6.864;2023-08-31T08:22:59;14.77;88.82
74081;SHT31;62438;52.228;6.864;2023-08-31T08:24:59;14.83;89.54
74081;SHT31;62438;52.228;6.864;2023-08-31T08:27:00;14.89;88.89
74081;SHT31;62438;52.228;6.864;2023-08-31T08:29:00;14.83;88.53
74081;SHT31;62438;52.228;6.864;2023-08-31T08:31:01;14.91;88.98
74081;SHT31;62438;52.228;6.864;2023-08-31T08:33:04;14.91;88.09
74081;SHT31;62438;52.228;6.864;2023-08-31T08:35:05;14.96;88.03
74081;SHT31;62438;52.228;6.864;2023-08-31T08:37:05;15.20;88.01
74081;SHT31;62438;52.228;6.864;2023-08-31T08:39:06;15.52;86.48
74081;SHT31;62438;52.228;6.864;2023-08-31T08:41:06;15.75;85.19
74081;SHT31;62438;52.228;6.864;2023-08-31T08:43:07;15.63;84.82
74081;SHT31;62438;52.228;6.864;2023-08-31T08:45:12;15.68;85.79
74081;SHT31;62438;52.228;6.864;2023-08-31T08:47:15;15.96;84.46
74081;SHT31;62438;52.228;6.864;2023-08-31T08:49:16;16.21;83.39
74081;SHT31;62438;52.228;6.864;2023-08-31T08:51:18;16.07;83.50
74081;SHT31;62438;52.228;6.864;2023-08-31T08:53:18;15.83;83.72
74081;SHT31;62438;52.228;6.864;2023-08-31T08:55:19;15.76;84.99
74081;SHT31;62438;52.228;6.864;2023-08-31T08:57:21;15.73;83.65
74081;SHT31;62438;52.228;6.864;2023-08-31T08:59:21;15.69;84.02
74081;SHT31;62438;52.228;6.864;2023-08-31T09:01:23;15.69;84.73
74081;SHT31;62438;52.228;6.864;2023-08-31T09:03:23;15.81;84.17
74081;SHT31;62438;52.228;6.864;2023-08-31T09:05:32;15.99;83.04
74081;SHT31;62438;52.228;6.864;2023-08-31T09:07:36;16.24;82.87
74081;SHT31;62438;52.228;6.864;2023-08-31T09:09:48;16.41;81.96
74081;SHT31;62438;52.228;6.864;2023-08-31T09:11:50;16.40;82.99
74081;SHT31;62438;52.228;6.864;2023-08-31T09:13:51;16.44;82.69
74081;SHT31;62438;52.228;6.864;2023-08-31T09:15:52;16.43;81.93
74081;SHT31;62438;52.228;6.864;2023-08-31T09:17:52;16.44;81.74
74081;SHT31;62438;52.228;6.864;2023-08-31T09:20:00;16.85;82.36
74081;SHT31;62438;52.228;6.864;2023-08-31T09:22:06;17.24;80.70
74081;SHT31;62438;52.228;6.864;2023-08-31T09:24:06;17.24;79.82
74081;SHT31;62438;52.228;6.864;2023-08-31T09:26:13;16.99;79.73
74081;SHT31;62438;52.228;6.864;2023-08-31T09:28:15;16.78;81.35
74081;SHT31;62438;52.228;6.864;2023-08-31T09:30:16;16.91;81.56
74081;SHT31;62438;52.228;6.864;2023-08-31T09:32:19;17.06;80.26
74081;SHT31;62438;52.228;6.864;2023-08-31T09:34:20;17.22;81.07
74081;SHT31;62438;52.228;6.864;2023-08-31T09:36:20;17.34;79.43
74081;SHT31;62438;52.228;6.864;2023-08-31T09:38:22;17.08;79.83
74081;SHT31;62438;52.228;6.864;2023-08-31T09:40:23;16.88;79.86
74081;SHT31;62438;52.228;6.864;2023-08-31T09:42:36;16.69;80.43
74081;SHT31;62438;52.228;6.864;2023-08-31T09:44:40;16.74;78.85
74081;SHT31;62438;52.228;6.864;2023-08-31T09:46:42;16.91;79.57
74081;SHT31;62438;52.228;6.864;2023-08-31T09:48:43;17.06;79.74
74081;SHT31;62438;52.228;6.864;2023-08-31T09:50:45;16.98;79.83
74081;SHT31;62438;52.228;6.864;2023-08-31T09:52:46;17.02;78.90
74081;SHT31;62438;52.228;6.864;2023-08-31T09:54:48;16.81;78.53
74081;SHT31;62438;52.228;6.864;2023-08-31T09:56:49;16.65;79.68
74081;SHT31;62438;52.228;6.864;2023-08-31T09:58:50;16.57;79.78
74081;SHT31;62438;52.228;6.864;2023-08-31T10:00:51;16.17;84.44
74081;SHT31;62438;52.228;6.864;2023-08-31T10:02:55;15.79;85.81
74081;SHT31;62438;52.228;6.864;2023-08-31T10:04:56;15.69;86.75
74081;SHT31;62438;52.228;6.864;2023-08-31T10:06:57;15.56;88.33
74081;SHT31;62438;52.228;6.864;2023-08-31T10:08:58;15.56;86.93
74081;SHT31;62438;52.228;6.864;2023-08-31T10:11:03;15.68;86.07
74081;SHT31;62438;52.228;6.864;2023-08-31T10:13:06;16.10;83.83
74081;SHT31;62438;52.228;6.864;2023-08-31T10:15:06;16.34;84.05
74081;SHT31;62438;52.228;6.864;2023-08-31T10:17:07;16.50;83.35
74081;SHT31;62438;52.228;6.864;2023-08-31T10:19:08;16.75;82.84
74081;SHT31;62438;52.228;6.864;2023-08-31T10:21:09;16.98;81.73
74081;SHT31;62438;52.228;6.864;2023-08-31T10:23:09;17.34;82.54
74081;SHT31;62438;52.228;6.864;2023-08-31T10:25:10;17.47;80.65
74081;SHT31;62438;52.228;6.864;2023-08-31T10:27:18;17.51;79.77
74081;SHT31;62438;52.228;6.864;2023-08-31T10:29:26;17.42;78.44
74081;SHT31;62438;52.228;6.864;2023-08-31T10:31:33;17.16;80.49
74081;SHT31;62438;52.228;6.864;2023-08-31T10:33:40;17.43;79.38
74081;SHT31;62438;52.228;6.864;2023-08-31T10:37:48;17.91;77.00
74081;SHT31;62438;52.228;6.864;2023-08-31T10:39:48;17.99;76.51
74081;SHT31;62438;52.228;6.864;2023-08-31T10:41:56;17.64;77.41
74081;SHT31;62438;52.228;6.864;2023-08-31T10:43:57;17.97;77.57
74081;SHT31;62438;52.228;6.864;2023-08-31T10:45:58;17.82;77.98
74081;SHT31;62438;52.228;6.864;2023-08-31T10:48:00;18.24;77.57
74081;SHT31;62438;52.228;6.864;2023-08-31T10:50:19;18.19;75.37
74081;SHT31;62438;52.228;6.864;2023-08-31T10:52:19;18.25;76.03
74081;SHT31;62438;52.228;6.864;2023-08-31T10:54:25;17.87;77.27
74081;SHT31;62438;52.228;6.864;2023-08-31T10:56:29;17.64;77.80
74081;SHT31;62438;52.228;6.864;2023-08-31T10:58:33;17.50;77.10
74081;SHT31;62438;52.228;6.864;2023-08-31T11:00:52;17.40;77.14
74081;SHT31;62438;52.228;6.864;2023-08-31T11:02:55;17.22;78.31
74081;SHT31;62438;52.228;6.864;2023-08-31T11:05:20;17.19;79.73
74081;SHT31;62438;52.228;6.864;2023-08-31T11:07:23;17.20;78.51
74081;SHT31;62438;52.228;6.864;2023-08-31T11:09:24;17.24;80.04
74081;SHT31;62438;52.228;6.864;2023-08-31T11:11:24;17.02;80.74
74081;SHT31;62438;52.228;6.864;2023-08-31T11:13:25;16.95;82.36
74081;SHT31;62438;52.228;6.864;2023-08-31T11:15:26;16.81;82.03
74081;SHT31;62438;52.228;6.864;2023-08-31T11:17:27;16.63;80.66
74081;SHT31;62438;52.228;6.864;2023-08-31T11:19:28;16.61;81.89
74081;SHT31;62438;52.228;6.864;2023-08-31T11:21:28;16.84;80.90
74081;SHT31;62438;52.228;6.864;2023-08-31T11:23:31;17.57;77.33
74081;SHT31;62438;52.228;6.864;2023-08-31T11:25:32;18.19;75.60
74081;SHT31;62438;52.228;6.864;2023-08-31T11:27:32;18.19;75.58
74081;SHT31;62438;52.228;6.864;2023-08-31T11:29:36;17.75;72.81
74081;SHT31;62438;52.228;6.864;2023-08-31T11:31:39;17.47;75.03
74081;SHT31;62438;52.228;6.864;2023-08-31T11:33:40;17.23;75.23
74081;SHT31;62438;52.228;6.864;2023-08-31T11:35:43;17.03;75.49
74081;SHT31;62438;52.228;6.864;2023-08-31T11:37:45;16.92;76.28
74081;SHT31;62438;52.228;6.864;2023-08-31T11:39:53;16.91;77.09
74081;SHT31;62438;52.228;6.864;2023-08-31T11:41:54;16.84;76.88
74081;SHT31;62438;52.228;6.864;2023-08-31T11:43:55;16.96;77.11
74081;SHT31;62438;52.228;6.864;2023-08-31T11:45:55;16.95;77.64
74081;SHT31;62438;52.228;6.864;2023-08-31T11:47:56;16.84;77.28
74081;SHT31;62438;52.228;6.864;2023-08-31T11:49:58;16.88;78.37
74081;SHT31;62438;52.228;6.864;2023-08-31T11:51:59;16.88;79.81
74081;SHT31;62438;52.228;6.864;2023-08-31T11:54:03;16.75;80.37
74081;SHT31;62438;52.228;6.864;2023-08-31T11:56:04;16.95;80.94
74081;SHT31;62438;52.228;6.864;2023-08-31T11:58:07;16.98;81.68
74081;SHT31;62438;52.228;6.864;2023-08-31T12:00:08;17.16;82.58
74081;SHT31;62438;52.228;6.864;2023-08-31T12:02:11;17.66;77.85
74081;SHT31;62438;52.228;6.864;2023-08-31T12:04:12;17.98;76.55
74081;SHT31;62438;52.228;6.864;2023-08-31T12:06:17;18.74;73.08
74081;SHT31;62438;52.228;6.864;2023-08-31T12:08:24;19.27;73.25
74081;SHT31;62438;52.228;6.864;2023-08-31T12:10:26;19.62;72.60
74081;SHT31;62438;52.228;6.864;2023-08-31T12:12:27;20.10;72.28
74081;SHT31;62438;52.228;6.864;2023-08-31T12:14:28;20.13;70.16
74081;SHT31;62438;52.228;6.864;2023-08-31T12:16:35;19.83;70.79
74081;SHT31;62438;52.228;6.864;2023-08-31T12:18:37;19.72;71.45
74081;SHT31;62438;52.228;6.864;2023-08-31T12:22:44;18.45;74.43
74081;SHT31;62438;52.228;6.864;2023-08-31T12:24:45;18.16;76.59
74081;SHT31;62438;52.228;6.864;2023-08-31T12:26:45;18.12;75.80
74081;SHT31;62438;52.228;6.864;2023-08-31T12:28:46;17.92;75.32
74081;SHT31;62438;52.228;6.864;2023-08-31T12:30:53;17.81;75.41
74081;SHT31;62438;52.228;6.864;2023-08-31T12:32:54;17.57;77.82
74081;SHT31;62438;52.228;6.864;2023-08-31T12:34:54;17.42;78.09
74081;SHT31;62438;52.228;6.864;2023-08-31T12:36:54;17.30;77.58
74081;SHT31;62438;52.228;6.864;2023-08-31T12:38:59;18.05;77.09
74081;SHT31;62438;52.228;6.864;2023-08-31T12:41:06;19.01;75.35
74081;SHT31;62438;52.228;6.864;2023-08-31T12:43:06;19.94;72.93
74081;SHT31;62438;52.228;6.864;2023-08-31T12:45:07;20.34;71.49
74081;SHT31;62438;52.228;6.864;2023-08-31T12:47:08;20.30;70.01
74081;SHT31;62438;52.228;6.864;2023-08-31T12:49:08;20.62;69.88
74081;SHT31;62438;52.228;6.864;2023-08-31T12:51:09;20.95;69.27
74081;SHT31;62438;52.228;6.864;2023-08-31T12:53:09;20.52;69.91
74081;SHT31;62438;52.228;6.864;2023-08-31T12:55:10;20.68;69.45
74081;SHT31;62438;52.228;6.864;2023-08-31T12:57:10;20.30;69.29